ルレオ の空港の天気 - METARとTAF

Lulea / Kallax ( ESPA / LLA ) - スウェーデン ルレオ
飛行場実況気象(Metar)
観測時間06/17 21:20 CEST (06/17 19:20 UTC)
風向・風速南 2m/s
視程10km以上
天気現象弱いしゅう雨
なし
気温17℃
湿度83%
気圧1005hPa
METARESPA 171920Z 18004KT 9999 -SHRA NSC 17/14 Q1005
過去の天気等 Google飛行場航空写真 Wunderground天気予報

過去48時間のMETAR

飛行場予報(TAF)
発表時間: 6/17 19:30 CEST (6/17 17:30 UTC)
予報対象時間: 17日20時 CEST ~ 18日1時 CEST
風向・風速南 2m/s
視程10km以上
なし
17日20時 CEST から 確率 40% で
天気現象しゅう雨 雷
全天の8割程度の積乱雲 雲底高度 1830m
TAF ESPA 171730Z 1718/1723 18003KT CAVOK
PROB40 1718/1720 SHRA TS BKN060CB